Time;durP1;ratioP1;P1;durP2;ratioP2;P2;SDS_P1;SDS_P2;PMS_P1;PMS_P2;Temp;Humidity;BMP_temperature;BMP_pressure;BME280_temperature;BME280_humidity;BME280_pressure;Samples;Min_cycle;Max_cycle;Signal;HPM_P1;HPM_P2
2021/05/08 00:00:10;;;;;;;4.95;4.38;;;11.10;48.00;;;;;;1490563;39;20538;-64
2021/05/08 00:01:31;;;;;;;5.35;4.28;;;11.00;48.00;;;;;;1490908;39;20061;-64
2021/05/08 00:02:52;;;;;;;7.40;4.82;;;11.00;48.00;;;;;;1490230;39;20086;-64
2021/05/08 00:04:12;;;;;;;4.60;4.20;;;11.00;47.80;;;;;;1491700;39;20245;-64
2021/05/08 00:05:33;;;;;;;5.00;4.50;;;11.00;47.70;;;;;;1489214;39;20135;-64
2021/05/08 00:06:56;;;;;;;5.18;4.68;;;11.00;47.70;;;;;;1490980;39;20035;-64
2021/05/08 00:08:17;;;;;;;6.93;4.72;;;10.90;47.60;;;;;;1491341;39;20077;-64
2021/05/08 00:09:37;;;;;;;6.18;4.95;;;11.00;47.70;;;;;;1489682;39;20039;-64
2021/05/08 00:10:58;;;;;;;5.72;4.65;;;10.90;47.60;;;;;;1490140;39;20048;-64
2021/05/08 00:12:19;;;;;;;5.00;4.50;;;10.90;47.70;;;;;;1490961;39;20024;-64
2021/05/08 00:13:40;;;;;;;4.72;4.18;;;10.90;47.80;;;;;;1489608;39;20496;-64
2021/05/08 00:15:01;;;;;;;5.38;4.40;;;10.90;48.00;;;;;;1490320;39;20024;-64
2021/05/08 00:16:22;;;;;;;4.68;4.28;;;10.90;48.10;;;;;;1490220;39;20032;-64
2021/05/08 00:17:43;;;;;;;5.40;4.88;;;10.80;48.10;;;;;;1490961;39;20250;-63
2021/05/08 00:19:04;;;;;;;4.57;4.18;;;10.80;48.20;;;;;;1491767;39;20027;-64
2021/05/08 00:20:25;;;;;;;5.55;4.85;;;10.80;48.30;;;;;;1489671;39;20042;-64
2021/05/08 00:21:46;;;;;;;5.50;5.00;;;10.80;48.30;;;;;;1490421;39;20020;-64
2021/05/08 00:23:07;;;;;;;6.70;4.72;;;10.80;48.20;;;;;;1490032;39;20024;-64
2021/05/08 00:24:28;;;;;;;5.50;4.88;;;10.80;48.10;;;;;;1491202;39;20045;-64
2021/05/08 00:25:49;;;;;;;5.60;4.47;;;10.80;48.10;;;;;;1491515;39;20046;-64
2021/05/08 00:27:10;;;;;;;4.47;4.00;;;10.80;48.00;;;;;;1491450;39;20068;-64
2021/05/08 00:28:30;;;;;;;4.97;4.47;;;10.80;48.00;;;;;;1490387;39;20354;-64
2021/05/08 00:29:51;;;;;;;5.57;4.70;;;10.80;47.80;;;;;;1489721;39;20044;-64
2021/05/08 00:31:12;;;;;;;4.45;4.05;;;10.70;47.80;;;;;;1491941;39;20358;-64
2021/05/08 00:32:34;;;;;;;4.82;4.43;;;10.80;47.90;;;;;;1491126;39;20036;-63
2021/05/08 00:33:55;;;;;;;8.13;4.72;;;10.70;48.50;;;;;;1487459;39;20103;-64
2021/05/08 00:35:16;;;;;;;4.75;4.30;;;10.80;48.00;;;;;;1488123;39;20527;-63
2021/05/08 00:36:37;;;;;;;4.38;3.97;;;10.70;48.00;;;;;;1488894;39;20046;-64
2021/05/08 00:37:58;;;;;;;5.30;4.43;;;10.80;48.00;;;;;;1490127;39;20103;-64
2021/05/08 00:39:19;;;;;;;5.10;4.55;;;10.80;48.00;;;;;;1490124;39;20043;-64
2021/05/08 00:40:39;;;;;;;5.20;4.70;;;10.80;48.00;;;;;;1489842;39;20853;-64
2021/05/08 00:42:00;;;;;;;5.15;4.65;;;10.70;48.20;;;;;;1489115;39;20036;-64
2021/05/08 00:43:21;;;;;;;5.05;4.55;;;10.80;48.30;;;;;;1490825;39;20043;-64
2021/05/08 00:44:43;;;;;;;5.47;4.93;;;10.70;48.30;;;;;;1491393;39;20019;-64
2021/05/08 00:46:04;;;;;;;4.85;4.15;;;10.70;48.40;;;;;;1490629;39;20044;-64
2021/05/08 00:47:25;;;;;;;4.70;4.30;;;10.70;48.40;;;;;;1488719;39;20034;-64
2021/05/08 00:48:46;;;;;;;4.95;4.45;;;10.80;48.60;;;;;;1488883;39;20035;-64
2021/05/08 00:50:09;;;;;;;4.85;4.45;;;10.80;48.80;;;;;;1489066;39;20040;-64
2021/05/08 00:51:29;;;;;;;5.35;4.85;;;10.70;48.80;;;;;;1490581;39;20081;-64
2021/05/08 00:52:50;;;;;;;4.63;4.22;;;10.80;48.70;;;;;;1491009;39;20088;-64
2021/05/08 00:54:11;;;;;;;4.72;4.32;;;10.70;48.50;;;;;;1488401;39;20081;-64
2021/05/08 00:55:32;;;;;;;5.30;4.72;;;10.80;48.60;;;;;;1488821;39;20032;-64
2021/05/08 00:56:53;;;;;;;5.72;4.88;;;10.70;48.50;;;;;;1489714;39;20282;-64
2021/05/08 00:58:14;;;;;;;5.40;4.35;;;10.80;48.50;;;;;;1490974;39;20358;-64
2021/05/08 00:59:35;;;;;;;5.57;4.80;;;10.70;48.50;;;;;;1489845;39;20079;-64
2021/05/08 01:00:56;;;;;;;5.70;5.00;;;10.70;49.00;;;;;;1490256;39;20058;-64
2021/05/08 01:02:17;;;;;;;5.55;5.05;;;10.70;48.40;;;;;;1491487;39;20039;-63
2021/05/08 01:03:38;;;;;;;4.78;4.35;;;10.70;48.40;;;;;;1490604;39;20023;-63
2021/05/08 01:04:59;;;;;;;6.05;4.82;;;10.70;48.30;;;;;;1491198;39;20076;-64
2021/05/08 01:06:20;;;;;;;5.53;4.93;;;10.70;48.30;;;;;;1489651;39;20560;-64
2021/05/08 01:07:41;;;;;;;7.70;4.53;;;10.70;48.20;;;;;;1489245;39;20032;-64
2021/05/08 01:09:03;;;;;;;6.45;4.75;;;10.70;48.20;;;;;;1488209;39;20422;-63
2021/05/08 01:10:24;;;;;;;5.18;4.47;;;10.70;48.20;;;;;;1492414;39;20039;-63
2021/05/08 01:11:44;;;;;;;5.13;4.57;;;10.60;48.10;;;;;;1489375;39;20021;-63
2021/05/08 01:13:05;;;;;;;5.63;4.93;;;10.60;48.10;;;;;;1489273;39;20051;-63
2021/05/08 01:14:26;;;;;;;5.03;4.55;;;10.60;48.20;;;;;;1489875;39;20031;-63
2021/05/08 01:15:48;;;;;;;4.95;4.50;;;10.60;48.30;;;;;;1488750;39;20040;-63
2021/05/08 01:17:09;;;;;;;5.75;5.05;;;10.60;48.30;;;;;;1490828;39;20032;-63
2021/05/08 01:18:32;;;;;;;7.40;4.55;;;10.60;48.20;;;;;;1491380;39;20361;-64
2021/05/08 01:19:53;;;;;;;8.32;5.10;;;10.60;48.20;;;;;;1490708;39;20039;-64
2021/05/08 01:21:17;;;;;;;8.60;4.75;;;10.60;48.20;;;;;;1489531;39;20035;-64
2021/05/08 01:22:38;;;;;;;5.35;4.70;;;10.50;48.40;;;;;;1490931;39;20071;-63
2021/05/08 01:24:00;;;;;;;6.50;4.95;;;10.50;48.50;;;;;;1489348;39;20021;-63
2021/05/08 01:25:23;;;;;;;6.47;4.63;;;10.50;48.50;;;;;;1491487;39;20388;-63
2021/05/08 01:26:44;;;;;;;4.93;4.15;;;10.50;48.70;;;;;;1489774;39;20029;-63
2021/05/08 01:28:04;;;;;;;7.47;4.18;;;10.40;48.60;;;;;;1490238;39;20289;-63
2021/05/08 01:29:25;;;;;;;6.35;4.65;;;10.40;48.80;;;;;;1485755;39;20118;-64
2021/05/08 01:30:46;;;;;;;5.50;4.35;;;10.40;48.70;;;;;;1486398;39;20027;-63
2021/05/08 01:32:07;;;;;;;6.18;4.38;;;10.40;48.80;;;;;;1490532;39;20033;-64
2021/05/08 01:33:28;;;;;;;5.10;4.60;;;10.40;48.90;;;;;;1489142;39;20047;-64
2021/05/08 01:34:49;;;;;;;4.97;4.47;;;10.40;48.90;;;;;;1488696;39;20043;-63
2021/05/08 01:36:10;;;;;;;6.22;4.97;;;10.30;48.90;;;;;;1488763;39;20401;-64
2021/05/08 01:37:31;;;;;;;5.38;4.20;;;10.30;48.90;;;;;;1487744;39;20040;-63
2021/05/08 01:38:52;;;;;;;5.45;4.72;;;10.30;49.00;;;;;;1489293;39;20319;-63
2021/05/08 01:40:15;;;;;;;9.60;5.00;;;10.30;49.10;;;;;;1490033;39;20023;-64
2021/05/08 01:41:36;;;;;;;5.82;5.10;;;10.30;49.20;;;;;;1484522;40;20029;-63
2021/05/08 01:42:57;;;;;;;5.95;4.60;;;10.30;49.20;;;;;;1488554;39;20046;-63
2021/05/08 01:44:18;;;;;;;10.07;5.38;;;10.20;49.20;;;;;;1489415;39;20044;-63
2021/05/08 01:45:39;;;;;;;5.45;4.85;;;10.20;49.20;;;;;;1489833;39;20037;-63
2021/05/08 01:46:59;;;;;;;6.00;4.43;;;10.20;49.20;;;;;;1490131;39;20036;-63
2021/05/08 01:48:21;;;;;;;9.38;5.40;;;10.20;49.20;;;;;;1490493;39;20060;-63
2021/05/08 01:49:42;;;;;;;9.13;4.97;;;10.20;49.20;;;;;;1490891;39;20024;-63
2021/05/08 01:51:03;;;;;;;7.00;4.75;;;10.20;49.30;;;;;;1490415;39;20048;-63
2021/05/08 01:52:24;;;;;;;5.80;4.80;;;10.20;49.40;;;;;;1490725;39;20023;-63
2021/05/08 01:53:45;;;;;;;6.78;4.93;;;10.20;49.60;;;;;;1489979;39;20028;-63
2021/05/08 01:55:12;;;;;;;6.65;4.88;;;10.20;49.70;;;;;;1492178;39;20050;-63
2021/05/08 01:56:33;;;;;;;8.13;5.22;;;10.20;49.80;;;;;;1490666;39;20127;-63
2021/05/08 01:57:56;;;;;;;8.23;4.82;;;10.20;49.70;;;;;;1491644;39;20027;-63
2021/05/08 01:59:17;;;;;;;9.40;5.72;;;10.10;49.90;;;;;;1489937;39;20045;-63
2021/05/08 02:00:41;;;;;;;10.27;5.65;;;10.10;49.70;;;;;;1491914;39;20023;-63
2021/05/08 02:02:03;;;;;;;7.20;5.88;;;10.20;49.60;;;;;;1491452;39;20024;-63
2021/05/08 02:03:24;;;;;;;8.13;5.80;;;10.20;49.60;;;;;;1489322;39;20250;-63
2021/05/08 02:04:46;;;;;;;7.65;5.70;;;10.20;49.60;;;;;;1491668;39;20451;-63
2021/05/08 02:06:08;;;;;;;8.80;5.78;;;10.20;49.70;;;;;;1492420;39;20024;-64
2021/05/08 02:07:28;;;;;;;9.10;6.20;;;10.20;49.70;;;;;;1491060;39;20031;-64
2021/05/08 02:08:49;;;;;;;9.43;6.43;;;10.20;49.60;;;;;;1492046;39;20028;-63
2021/05/08 02:10:13;;;;;;;7.88;6.28;;;10.20;49.80;;;;;;1490899;39;20047;-63
2021/05/08 02:11:33;;;;;;;7.70;5.70;;;10.20;50.00;;;;;;1492174;39;20071;-63
2021/05/08 02:12:55;;;;;;;7.45;6.07;;;10.20;50.10;;;;;;1490434;39;20360;-64
2021/05/08 02:14:16;;;;;;;5.88;5.20;;;10.20;50.00;;;;;;1489409;39;20044;-64
2021/05/08 02:15:39;;;;;;;10.35;5.90;;;10.20;50.10;;;;;;1491179;39;20414;-64
2021/05/08 02:17:00;;;;;;;6.88;5.97;;;10.20;50.20;;;;;;1491392;39;20084;-63
2021/05/08 02:18:21;;;;;;;7.85;6.18;;;10.20;50.20;;;;;;1491891;39;20027;-63
2021/05/08 02:19:42;;;;;;;7.43;5.68;;;10.20;50.30;;;;;;1491240;39;20028;-63
2021/05/08 02:21:04;;;;;;;7.70;6.13;;;10.30;50.30;;;;;;1490852;39;20032;-63
2021/05/08 02:22:25;;;;;;;7.30;5.57;;;10.20;50.20;;;;;;1490564;39;20035;-63
2021/05/08 02:23:45;;;;;;;7.18;6.07;;;10.20;50.30;;;;;;1490618;39;20031;-64
2021/05/08 02:25:08;;;;;;;7.30;6.22;;;10.30;50.40;;;;;;1491881;39;20572;-63
2021/05/08 02:26:29;;;;;;;10.73;6.30;;;10.30;50.50;;;;;;1491904;39;20038;-64
2021/05/08 02:27:50;;;;;;;7.35;5.78;;;10.30;50.30;;;;;;1490777;39;20036;-63
2021/05/08 02:29:11;;;;;;;10.43;6.30;;;10.30;50.40;;;;;;1490899;39;20036;-64
2021/05/08 02:30:34;;;;;;;7.97;5.80;;;10.30;50.30;;;;;;1489447;39;20522;-64
2021/05/08 02:31:55;;;;;;;9.05;6.30;;;10.30;50.50;;;;;;1490241;39;20038;-63
2021/05/08 02:33:16;;;;;;;8.20;6.15;;;10.30;50.40;;;;;;1491640;39;20050;-64
2021/05/08 02:34:37;;;;;;;7.90;5.95;;;10.30;50.40;;;;;;1490121;39;20036;-64
2021/05/08 02:35:57;;;;;;;10.43;6.47;;;10.30;50.60;;;;;;1490156;39;20120;-63
2021/05/08 02:37:18;;;;;;;7.93;6.15;;;10.30;50.60;;;;;;1491566;39;20046;-64
2021/05/08 02:38:39;;;;;;;8.18;6.38;;;10.30;50.60;;;;;;1490736;39;20039;-63
2021/05/08 02:40:01;;;;;;;8.80;6.18;;;10.30;50.70;;;;;;1493266;39;20046;-63
2021/05/08 02:41:22;;;;;;;9.23;6.65;;;10.30;50.60;;;;;;1492261;39;20039;-64
2021/05/08 02:42:43;;;;;;;7.25;6.43;;;10.40;50.60;;;;;;1491210;39;20055;-64
2021/05/08 02:44:04;;;;;;;9.48;6.57;;;10.40;50.70;;;;;;1490046;39;20140;-63
2021/05/08 02:45:25;;;;;;;9.95;6.10;;;10.40;50.80;;;;;;1491291;39;20418;-63
2021/05/08 02:46:46;;;;;;;8.43;6.47;;;10.40;50.70;;;;;;1491182;39;20039;-64
2021/05/08 02:48:07;;;;;;;7.30;6.60;;;10.40;50.70;;;;;;1486678;39;20412;-63
2021/05/08 02:49:28;;;;;;;8.27;6.60;;;10.40;50.70;;;;;;1490420;39;20028;-64
2021/05/08 02:50:49;;;;;;;7.75;6.72;;;10.40;50.60;;;;;;1490056;39;20052;-64
2021/05/08 02:52:10;;;;;;;8.77;6.82;;;10.40;50.50;;;;;;1490913;39;20032;-64
2021/05/08 02:53:31;;;;;;;9.60;6.43;;;10.50;50.60;;;;;;1491656;39;20039;-64
2021/05/08 02:54:52;;;;;;;9.13;6.20;;;10.50;50.50;;;;;;1491882;39;20043;-63
2021/05/08 02:56:13;;;;;;;8.38;6.70;;;10.50;50.40;;;;;;1491389;39;20020;-63
2021/05/08 02:57:35;;;;;;;8.18;6.70;;;10.50;50.40;;;;;;1490657;39;20284;-65
2021/05/08 02:58:56;;;;;;;7.68;6.63;;;10.50;50.30;;;;;;1490899;39;20032;-63
2021/05/08 03:00:17;;;;;;;8.90;6.32;;;10.50;50.40;;;;;;1486003;39;20028;-64
2021/05/08 03:01:38;;;;;;;8.02;6.63;;;10.50;50.40;;;;;;1486877;39;20035;-64
2021/05/08 03:02:59;;;;;;;8.63;6.97;;;10.50;50.60;;;;;;1486480;39;20270;-63
2021/05/08 03:04:20;;;;;;;7.30;6.50;;;10.50;50.60;;;;;;1486508;39;20068;-63
2021/05/08 03:05:41;;;;;;;8.68;6.82;;;10.50;50.60;;;;;;1486377;39;20259;-63
2021/05/08 03:07:03;;;;;;;8.50;6.70;;;10.50;50.60;;;;;;1489775;39;20134;-63
2021/05/08 03:08:24;;;;;;;8.50;6.85;;;10.50;50.60;;;;;;1491271;39;20062;-63
2021/05/08 03:09:44;;;;;;;7.25;5.85;;;10.50;50.60;;;;;;1492028;39;20336;-63
2021/05/08 03:11:05;;;;;;;14.05;7.47;;;10.50;50.50;;;;;;1490688;39;20043;-63
2021/05/08 03:12:26;;;;;;;9.27;6.57;;;10.50;50.30;;;;;;1490793;39;20357;-63
2021/05/08 03:13:47;;;;;;;8.00;6.53;;;10.50;50.30;;;;;;1491015;39;20460;-64
2021/05/08 03:15:09;;;;;;;12.93;6.70;;;10.50;50.30;;;;;;1490754;39;20032;-64
2021/05/08 03:16:30;;;;;;;8.85;6.82;;;10.50;50.20;;;;;;1490570;39;20384;-64
2021/05/08 03:17:51;;;;;;;10.07;7.20;;;10.50;50.30;;;;;;1491190;39;20072;-64
2021/05/08 03:19:11;;;;;;;9.68;7.63;;;10.50;50.40;;;;;;1489494;39;20024;-63
2021/05/08 03:20:32;;;;;;;12.18;7.57;;;10.50;50.40;;;;;;1490353;39;20031;-63
2021/05/08 03:21:54;;;;;;;9.05;6.68;;;10.50;50.30;;;;;;1491252;39;20035;-64
2021/05/08 03:23:16;;;;;;;8.57;7.22;;;10.50;50.10;;;;;;1490158;39;20043;-63
2021/05/08 03:24:37;;;;;;;11.48;7.53;;;10.50;50.10;;;;;;1490392;39;20368;-63
2021/05/08 03:25:57;;;;;;;11.98;7.20;;;10.50;50.10;;;;;;1491932;39;20076;-63
2021/05/08 03:27:18;;;;;;;9.77;7.10;;;10.50;50.00;;;;;;1491234;39;20023;-63
2021/05/08 03:28:39;;;;;;;9.68;6.97;;;10.50;49.80;;;;;;1491725;39;20031;-63
2021/05/08 03:30:00;;;;;;;8.52;7.63;;;10.50;49.90;;;;;;1491065;39;20060;-63
2021/05/08 03:31:21;;;;;;;13.10;7.53;;;10.50;50.00;;;;;;1491297;39;20043;-63
2021/05/08 03:32:42;;;;;;;9.73;7.40;;;10.50;49.80;;;;;;1490979;39;20028;-63
2021/05/08 03:34:03;;;;;;;8.18;6.95;;;10.50;49.70;;;;;;1491088;39;20032;-64
2021/05/08 03:35:24;;;;;;;8.02;6.45;;;10.50;49.80;;;;;;1489318;39;20028;-63
2021/05/08 03:36:45;;;;;;;7.63;6.88;;;10.50;49.80;;;;;;1490258;39;20027;-64
2021/05/08 03:38:06;;;;;;;8.77;6.80;;;10.50;49.70;;;;;;1489599;39;20040;-63
2021/05/08 03:39:27;;;;;;;8.32;7.25;;;10.50;49.60;;;;;;1486912;39;20036;-64
2021/05/08 03:40:48;;;;;;;9.50;7.00;;;10.50;49.50;;;;;;1490083;39;20521;-63
2021/05/08 03:42:09;;;;;;;10.15;7.50;;;10.50;49.50;;;;;;1489272;39;20044;-63
2021/05/08 03:43:30;;;;;;;11.15;7.45;;;10.50;49.60;;;;;;1489293;39;20042;-63
2021/05/08 03:44:51;;;;;;;10.60;7.18;;;10.50;49.40;;;;;;1489747;39;20042;-63
2021/05/08 03:46:12;;;;;;;7.82;7.00;;;10.50;49.30;;;;;;1491182;39;20041;-64
2021/05/08 03:47:33;;;;;;;7.85;7.05;;;10.50;49.40;;;;;;1491494;39;20072;-63
2021/05/08 03:48:53;;;;;;;10.13;7.15;;;10.50;49.30;;;;;;1490310;39;20027;-63
2021/05/08 03:50:14;;;;;;;7.85;7.03;;;10.50;49.20;;;;;;1490435;39;20466;-63
2021/05/08 03:51:35;;;;;;;11.30;7.78;;;10.50;49.10;;;;;;1491273;39;20055;-63
2021/05/08 03:52:56;;;;;;;9.00;7.15;;;10.50;49.10;;;;;;1489354;39;20028;-64
2021/05/08 03:54:17;;;;;;;10.68;6.80;;;10.50;49.10;;;;;;1491345;39;20027;-63
2021/05/08 03:55:39;;;;;;;10.65;7.32;;;10.50;49.10;;;;;;1490238;39;20020;-63
2021/05/08 03:57:00;;;;;;;8.25;7.25;;;10.50;49.10;;;;;;1489864;39;20044;-64
2021/05/08 03:58:32;;;;;;;8.18;7.28;;;10.50;49.00;;;;;;1490491;39;20144;-63
2021/05/08 03:59:53;;;;;;;8.13;7.07;;;10.50;49.10;;;;;;1489112;39;20064;-63
2021/05/08 04:01:14;;;;;;;8.98;7.10;;;10.50;49.10;;;;;;1489249;39;20043;-63
2021/05/08 04:02:35;;;;;;;10.20;7.55;;;10.40;49.00;;;;;;1490661;39;20035;-64
2021/05/08 04:03:55;;;;;;;9.63;7.65;;;10.50;49.10;;;;;;1490946;39;20032;-63
2021/05/08 04:05:16;;;;;;;9.50;7.53;;;10.40;49.10;;;;;;1489991;39;20031;-64
2021/05/08 04:06:37;;;;;;;10.98;7.15;;;10.40;49.10;;;;;;1491732;39;20059;-63
2021/05/08 04:07:58;;;;;;;8.70;7.22;;;10.40;48.90;;;;;;1489711;39;20032;-64
2021/05/08 04:09:19;;;;;;;8.98;7.88;;;10.40;49.00;;;;;;1491215;39;20085;-64
2021/05/08 04:10:40;;;;;;;8.57;6.88;;;10.40;49.00;;;;;;1491262;39;20043;-64
2021/05/08 04:12:01;;;;;;;10.45;7.35;;;10.40;49.10;;;;;;1490899;39;20081;-63
2021/05/08 04:13:22;;;;;;;10.30;8.07;;;10.40;49.20;;;;;;1490372;39;20055;-63
2021/05/08 04:14:43;;;;;;;9.15;6.97;;;10.40;49.30;;;;;;1489988;39;20419;-64
2021/05/08 04:16:04;;;;;;;8.73;7.28;;;10.40;49.40;;;;;;1489431;39;20024;-64
2021/05/08 04:17:25;;;;;;;7.97;7.18;;;10.40;49.60;;;;;;1489607;39;20072;-64
2021/05/08 04:18:46;;;;;;;9.13;7.13;;;10.40;49.50;;;;;;1491969;39;20031;-64
2021/05/08 04:20:07;;;;;;;8.63;7.53;;;10.40;49.50;;;;;;1490419;39;20058;-64
2021/05/08 04:21:28;;;;;;;10.48;7.57;;;10.40;49.40;;;;;;1491341;39;20377;-63
2021/05/08 04:22:49;;;;;;;8.52;7.60;;;10.40;49.50;;;;;;1486700;40;20501;-64
2021/05/08 04:24:10;;;;;;;9.93;7.90;;;10.40;49.70;;;;;;1489680;39;20032;-64
2021/05/08 04:25:31;;;;;;;9.82;7.30;;;10.30;49.80;;;;;;1490351;39;20070;-64
2021/05/08 04:26:52;;;;;;;11.70;7.78;;;10.30;50.00;;;;;;1491184;39;20016;-64
2021/05/08 04:28:13;;;;;;;10.10;7.70;;;10.30;49.80;;;;;;1491454;39;20024;-64
2021/05/08 04:29:34;;;;;;;13.10;7.50;;;10.30;49.70;;;;;;1489744;39;20285;-64
2021/05/08 04:30:55;;;;;;;11.38;7.80;;;10.30;49.80;;;;;;1489933;39;20044;-64
2021/05/08 04:32:16;;;;;;;12.15;8.35;;;10.30;49.80;;;;;;1491512;39;20042;-63
2021/05/08 04:33:37;;;;;;;8.20;7.32;;;10.30;49.80;;;;;;1489510;39;20079;-64
2021/05/08 04:34:57;;;;;;;8.38;7.35;;;10.30;50.00;;;;;;1489319;39;20357;-63
2021/05/08 04:36:18;;;;;;;9.27;7.63;;;10.30;49.90;;;;;;1489804;39;20036;-64
2021/05/08 04:37:39;;;;;;;8.55;7.65;;;10.30;49.90;;;;;;1490879;39;20019;-64
2021/05/08 04:39:00;;;;;;;9.13;7.35;;;10.30;49.90;;;;;;1489586;39;20057;-64
2021/05/08 04:40:21;;;;;;;9.30;7.20;;;10.30;50.00;;;;;;1491519;39;20039;-64
2021/05/08 04:41:42;;;;;;;8.82;7.57;;;10.30;50.00;;;;;;1490632;39;20492;-64
2021/05/08 04:43:03;;;;;;;9.13;7.22;;;10.30;50.00;;;;;;1489388;39;20032;-64
2021/05/08 04:44:25;;;;;;;9.63;7.72;;;10.30;50.00;;;;;;1489517;39;20071;-64
2021/05/08 04:45:46;;;;;;;9.95;7.35;;;10.30;49.90;;;;;;1490903;39;20048;-63
2021/05/08 04:47:07;;;;;;;7.70;6.75;;;10.30;50.00;;;;;;1486366;39;20501;-64
2021/05/08 04:48:32;;;;;;;9.65;7.43;;;10.30;50.00;;;;;;1489100;39;20028;-63
2021/05/08 04:49:57;;;;;;;8.43;7.50;;;10.30;50.00;;;;;;1488598;39;20024;-64
2021/05/08 04:51:19;;;;;;;7.78;6.90;;;10.30;50.00;;;;;;1491331;39;20933;-64
2021/05/08 04:52:40;;;;;;;8.05;7.20;;;10.30;50.00;;;;;;1490990;39;20068;-63
2021/05/08 04:54:01;;;;;;;7.80;7.07;;;10.30;50.10;;;;;;1489920;39;20043;-64
2021/05/08 04:55:22;;;;;;;8.30;7.35;;;10.30;50.10;;;;;;1487924;39;20039;-64
2021/05/08 04:56:43;;;;;;;9.85;7.03;;;10.30;50.00;;;;;;1489538;39;20027;-64
2021/05/08 04:58:07;;;;;;;7.55;6.78;;;10.30;50.20;;;;;;1488969;39;20032;-64
2021/05/08 04:59:27;;;;;;;7.82;6.28;;;10.30;50.50;;;;;;1489721;39;20128;-63
2021/05/08 05:00:48;;;;;;;9.00;7.00;;;10.30;50.40;;;;;;1489303;39;20358;-64
2021/05/08 05:02:09;;;;;;;7.45;6.45;;;10.30;50.40;;;;;;1489400;39;20040;-64
2021/05/08 05:03:30;;;;;;;7.68;6.60;;;10.40;50.40;;;;;;1490323;39;20032;-64
2021/05/08 05:04:51;;;;;;;7.07;6.30;;;10.40;50.40;;;;;;1489153;39;20521;-64
2021/05/08 05:06:12;;;;;;;8.15;6.53;;;10.40;50.40;;;;;;1488438;39;20330;-63
2021/05/08 05:07:33;;;;;;;7.20;5.80;;;10.40;50.90;;;;;;1489975;39;20264;-64
2021/05/08 05:08:54;;;;;;;8.05;6.32;;;10.40;50.20;;;;;;1490379;39;20028;-64
2021/05/08 05:10:15;;;;;;;7.90;6.18;;;10.50;50.20;;;;;;1492856;39;20456;-64
2021/05/08 05:11:36;;;;;;;8.95;6.57;;;10.50;50.30;;;;;;1491103;39;20295;-64
2021/05/08 05:13:01;;;;;;;7.75;6.38;;;10.50;50.30;;;;;;1489356;39;20039;-64
2021/05/08 05:14:21;;;;;;;7.25;6.05;;;10.50;50.30;;;;;;1488768;39;20036;-64
2021/05/08 05:15:42;;;;;;;7.22;6.13;;;10.50;50.20;;;;;;1491042;39;20675;-63
2021/05/08 05:17:03;;;;;;;6.43;5.65;;;10.60;50.10;;;;;;1491214;39;20035;-64
2021/05/08 05:18:24;;;;;;;8.13;6.25;;;10.60;50.00;;;;;;1490355;39;20043;-64
2021/05/08 05:19:45;;;;;;;6.18;5.68;;;10.60;50.00;;;;;;1488517;39;20076;-64
2021/05/08 05:21:06;;;;;;;8.10;6.00;;;10.60;49.90;;;;;;1490357;39;20365;-64
2021/05/08 05:22:27;;;;;;;8.68;5.65;;;10.60;50.00;;;;;;1490444;39;20222;-64
2021/05/08 05:23:48;;;;;;;7.22;5.78;;;10.70;50.10;;;;;;1491292;39;20053;-64
2021/05/08 05:25:09;;;;;;;6.55;5.70;;;10.70;50.00;;;;;;1492122;39;20032;-64
2021/05/08 05:26:30;;;;;;;5.97;5.45;;;10.70;49.90;;;;;;1491398;39;20276;-63
2021/05/08 05:27:51;;;;;;;6.32;5.72;;;10.70;49.90;;;;;;1490865;39;20173;-64
2021/05/08 05:29:12;;;;;;;6.45;5.75;;;10.70;49.80;;;;;;1490990;39;20131;-64
2021/05/08 05:30:33;;;;;;;6.00;5.40;;;10.70;49.80;;;;;;1490845;39;20027;-63
2021/05/08 05:31:54;;;;;;;7.20;5.57;;;10.80;49.80;;;;;;1490964;39;20391;-64
2021/05/08 05:33:15;;;;;;;8.25;5.57;;;10.80;49.70;;;;;;1490792;39;20061;-63
2021/05/08 05:34:35;;;;;;;6.80;5.40;;;10.80;49.60;;;;;;1491847;39;20059;-64
2021/05/08 05:35:56;;;;;;;5.78;5.05;;;10.90;49.60;;;;;;1489699;39;20040;-64
2021/05/08 05:37:17;;;;;;;7.55;5.60;;;10.80;49.70;;;;;;1492455;39;20119;-64
2021/05/08 05:38:38;;;;;;;7.13;5.13;;;10.90;49.80;;;;;;1491904;39;20492;-63
2021/05/08 05:39:59;;;;;;;6.60;5.07;;;10.90;49.80;;;;;;1491155;39;20035;-63
2021/05/08 05:41:20;;;;;;;7.57;5.13;;;10.90;49.70;;;;;;1491860;39;20120;-64
2021/05/08 05:42:41;;;;;;;5.55;5.00;;;10.90;49.60;;;;;;1491369;39;20059;-64
2021/05/08 05:44:02;;;;;;;7.28;5.15;;;11.00;49.60;;;;;;1489775;39;20064;-64
2021/05/08 05:45:23;;;;;;;5.88;5.28;;;11.00;49.40;;;;;;1491630;39;20108;-64
2021/05/08 05:46:45;;;;;;;5.95;4.97;;;11.00;49.60;;;;;;1490118;39;20042;-63
2021/05/08 05:48:06;;;;;;;7.57;4.82;;;11.00;49.60;;;;;;1491388;39;20470;-64
2021/05/08 05:49:27;;;;;;;5.38;4.80;;;11.00;49.80;;;;;;1490973;39;20023;-64
2021/05/08 05:50:48;;;;;;;7.10;4.60;;;11.10;49.80;;;;;;1489776;39;20052;-64
2021/05/08 05:52:10;;;;;;;5.68;5.18;;;11.10;49.70;;;;;;1491288;39;20544;-64
2021/05/08 05:53:31;;;;;;;6.15;4.93;;;11.10;49.80;;;;;;1489221;39;20032;-63
2021/05/08 05:54:52;;;;;;;5.57;5.07;;;11.10;49.60;;;;;;1492095;39;20365;-64
2021/05/08 05:56:13;;;;;;;6.22;4.68;;;11.20;49.50;;;;;;1491742;39;20043;-64
2021/05/08 05:57:34;;;;;;;5.00;4.60;;;11.20;49.50;;;;;;1491642;39;20113;-64
2021/05/08 05:58:55;;;;;;;5.68;5.07;;;11.20;49.50;;;;;;1491130;39;20060;-64
2021/05/08 06:00:17;;;;;;;5.95;4.60;;;11.20;49.30;;;;;;1492081;39;20038;-64
2021/05/08 06:01:38;;;;;;;5.50;4.47;;;11.30;49.20;;;;;;1491297;39;20091;-64
2021/05/08 06:02:59;;;;;;;5.57;4.93;;;11.30;49.10;;;;;;1490591;39;20073;-64
2021/05/08 06:04:20;;;;;;;5.65;4.88;;;11.30;49.20;;;;;;1491077;39;20093;-64
2021/05/08 06:05:41;;;;;;;5.50;4.90;;;11.30;49.50;;;;;;1490286;39;20358;-64
2021/05/08 06:07:02;;;;;;;6.45;4.90;;;11.40;49.50;;;;;;1491531;39;20076;-64
2021/05/08 06:08:23;;;;;;;5.60;4.85;;;11.40;49.40;;;;;;1490210;39;20059;-64
2021/05/08 06:09:44;;;;;;;5.40;4.90;;;11.40;49.40;;;;;;1491841;39;20023;-64
2021/05/08 06:11:05;;;;;;;7.22;4.80;;;11.40;49.30;;;;;;1490206;39;20036;-64
2021/05/08 06:12:26;;;;;;;5.40;4.90;;;11.40;49.20;;;;;;1489563;39;20388;-64
2021/05/08 06:13:47;;;;;;;5.82;4.68;;;11.50;49.20;;;;;;1490174;39;20031;-64
2021/05/08 06:15:10;;;;;;;5.63;4.82;;;11.50;49.10;;;;;;1490582;39;20051;-64
2021/05/08 06:16:31;;;;;;;4.63;4.15;;;11.50;49.00;;;;;;1491057;39;20039;-64
2021/05/08 06:17:52;;;;;;;4.90;4.22;;;11.60;49.00;;;;;;1487187;40;20024;-64
2021/05/08 06:19:13;;;;;;;6.15;4.35;;;11.60;48.90;;;;;;1489642;39;20063;-64
2021/05/08 06:20:34;;;;;;;4.93;4.45;;;11.60;48.90;;;;;;1491722;39;20024;-64
2021/05/08 06:21:55;;;;;;;5.85;4.60;;;11.70;49.00;;;;;;1492007;39;20039;-64
2021/05/08 06:23:16;;;;;;;5.25;4.75;;;11.70;48.90;;;;;;1491697;39;20109;-63
2021/05/08 06:24:37;;;;;;;6.07;4.75;;;11.70;48.90;;;;;;1491429;39;20035;-64
2021/05/08 06:25:57;;;;;;;5.50;4.15;;;11.70;49.00;;;;;;1490110;39;20101;-64
2021/05/08 06:27:19;;;;;;;5.20;4.50;;;11.80;49.00;;;;;;1490991;39;20353;-64
2021/05/08 06:28:39;;;;;;;6.57;4.30;;;11.80;48.80;;;;;;1492231;39;20050;-63
2021/05/08 06:30:00;;;;;;;5.32;4.82;;;11.80;48.70;;;;;;1490453;39;20062;-61
2021/05/08 06:31:21;;;;;;;5.18;4.32;;;11.90;48.80;;;;;;1490062;39;20047;-61
2021/05/08 06:32:42;;;;;;;4.75;4.15;;;11.90;48.80;;;;;;1489883;39;20024;-60
2021/05/08 06:34:03;;;;;;;5.15;4.22;;;11.90;48.70;;;;;;1491446;39;20031;-60
2021/05/08 06:35:24;;;;;;;6.63;3.80;;;12.00;48.60;;;;;;1491728;39;20043;-60
2021/05/08 06:36:45;;;;;;;4.82;4.28;;;12.00;48.50;;;;;;1490103;39;20031;-60
2021/05/08 06:38:06;;;;;;;5.40;4.38;;;12.00;48.40;;;;;;1490899;39;20096;-61
2021/05/08 06:39:28;;;;;;;5.72;4.28;;;12.10;48.50;;;;;;1490902;39;20028;-61
2021/05/08 06:40:49;;;;;;;5.05;4.30;;;12.10;48.40;;;;;;1490662;39;20024;-61
2021/05/08 06:42:10;;;;;;;5.15;4.18;;;12.10;48.30;;;;;;1492356;39;20083;-61
2021/05/08 06:43:31;;;;;;;4.50;4.00;;;12.20;48.50;;;;;;1489118;39;20047;-61
2021/05/08 06:44:52;;;;;;;5.65;3.90;;;12.20;48.40;;;;;;1491100;39;20096;-61
2021/05/08 06:46:12;;;;;;;4.95;3.80;;;12.20;48.40;;;;;;1489403;39;20046;-61
2021/05/08 06:47:33;;;;;;;5.55;4.07;;;12.30;48.40;;;;;;1491040;39;20035;-62
2021/05/08 06:48:54;;;;;;;4.72;3.88;;;12.30;48.30;;;;;;1489769;39;20035;-61
2021/05/08 06:50:15;;;;;;;4.78;4.20;;;12.30;48.40;;;;;;1491773;39;20043;-61
2021/05/08 06:51:36;;;;;;;4.22;3.85;;;12.40;48.50;;;;;;1489282;39;20024;-61
2021/05/08 06:52:57;;;;;;;4.43;4.00;;;12.40;48.50;;;;;;1491004;39;20040;-61
2021/05/08 06:54:18;;;;;;;5.10;3.85;;;12.50;48.50;;;;;;1492773;39;20045;-61
2021/05/08 06:55:39;;;;;;;4.90;3.85;;;12.50;48.20;;;;;;1491967;39;20072;-61
2021/05/08 06:57:00;;;;;;;4.72;3.65;;;12.60;48.10;;;;;;1489328;39;20043;-60
2021/05/08 06:58:21;;;;;;;5.22;4.18;;;12.60;48.00;;;;;;1492057;39;20043;-61
2021/05/08 06:59:42;;;;;;;3.88;3.58;;;12.70;48.30;;;;;;1491441;39;20064;-61
2021/05/08 07:01:02;;;;;;;5.32;3.90;;;12.70;48.40;;;;;;1490363;39;20040;-61